Allenton, Missouri
Current Conditions -  °F | °C
As of 11:54 PM on Saturday 22 Nov 2014 (Local Time) from KSUS Reporting Station
Overcast Overcast  
Wind Chill: 54°   Ceiling: 8500
Heat Index: 54°   Visibility: 10mi
Dew Point: 49°   Wind: 8mph
Humidity: 83%   Direction: 200°SSW
Pressure: 29.85"   Gusts: NA
Location:  38.5°N, 90.68°W
Report Text: KSUS 230554Z AUTO 20007KT 10SM OVC085 12/09 A2985 RMK AO2 RAE41 SLP105 P0001 60006 T01220094 10122 20117 401440028 56016
Loading
Personal Weather Stations






























Interactive Weather Map New forecast layout! Learn more

10-Day Weather Forecast

Advertisements
Track Severe Weather on mobile